createdAt,value
2023-05-19T00:00:02.635Z,6.3
2023-05-19T00:04:01.660Z,6.1
2023-05-19T00:08:02.139Z,6.1
2023-05-19T00:12:01.124Z,6.1
2023-05-19T00:16:01.093Z,5.8
2023-05-19T00:20:00.999Z,5.8
2023-05-19T00:24:00.854Z,5.7
2023-05-19T00:28:02.160Z,5.7
2023-05-19T00:32:01.030Z,5.7
2023-05-19T00:36:04.874Z,5.4
2023-05-19T00:40:00.943Z,5.4
2023-05-19T00:44:00.998Z,5.2
2023-05-19T00:48:00.940Z,5.2
2023-05-19T00:52:01.057Z,5.2
2023-05-19T00:56:02.226Z,5
2023-05-19T01:00:00.900Z,5
2023-05-19T01:04:03.023Z,4.8
2023-05-19T01:08:01.361Z,4.8
2023-05-19T01:12:01.044Z,4.8
2023-05-19T01:16:05.738Z,4.8
2023-05-19T01:20:06.138Z,4.8
2023-05-19T01:24:08.178Z,4.8
2023-05-19T01:28:10.638Z,4.8
2023-05-19T01:32:03.909Z,4.1
2023-05-19T01:36:02.293Z,4.1
2023-05-19T01:40:00.938Z,4.1
2023-05-19T01:44:01.321Z,3.9
2023-05-19T01:48:02.583Z,3.9
2023-05-19T01:52:01.021Z,3.9
2023-05-19T01:56:01.043Z,3.7
2023-05-19T02:00:07.372Z,3.7
2023-05-19T02:04:07.679Z,3.6
2023-05-19T02:08:05.208Z,3.6
2023-05-19T02:12:02.573Z,3.4
2023-05-19T02:16:03.488Z,3.4
2023-05-19T02:20:01.177Z,3.4
2023-05-19T02:24:00.831Z,3.3
2023-05-19T02:28:00.879Z,3.3
2023-05-19T02:32:01.265Z,3.3
2023-05-19T02:36:01.130Z,2.9
2023-05-19T02:40:00.839Z,2.9
2023-05-19T02:44:01.152Z,2.9
2023-05-19T02:48:00.922Z,2.9
2023-05-19T02:52:01.123Z,2.9
2023-05-19T02:56:00.953Z,2.9
2023-05-19T03:00:01.432Z,2.9
2023-05-19T03:04:00.855Z,2.9
2023-05-19T03:08:01.018Z,2.9
2023-05-19T03:12:02.977Z,2.8
2023-05-19T03:16:01.120Z,2.8
2023-05-19T03:20:01.155Z,2.8
2023-05-19T03:24:01.215Z,2.8
2023-05-19T03:28:00.766Z,2.8
2023-05-19T03:32:01.154Z,2.8
2023-05-19T03:36:01.054Z,2.8
2023-05-19T03:40:01.085Z,2.8
2023-05-19T03:44:00.989Z,2.8
2023-05-19T03:48:01.083Z,2.8
2023-05-19T03:52:02.297Z,2.8
2023-05-19T03:56:01.065Z,2.9
2023-05-19T04:00:00.825Z,2.9
2023-05-19T04:04:00.905Z,3.3
2023-05-19T04:08:01.007Z,3.3
2023-05-19T04:12:01.907Z,3.3
2023-05-19T04:16:01.049Z,3.8
2023-05-19T04:20:01.201Z,3.8
2023-05-19T04:24:00.906Z,4.1
2023-05-19T04:28:02.032Z,4.1
2023-05-19T04:32:00.945Z,4.1
2023-05-19T04:36:04.725Z,4.5
2023-05-19T04:40:00.809Z,4.5
2023-05-19T04:44:01.138Z,4.9
2023-05-19T04:48:00.918Z,4.9
2023-05-19T04:52:00.927Z,4.9
2023-05-19T04:56:01.126Z,5.1
2023-05-19T05:00:00.964Z,5.1
2023-05-19T05:04:01.474Z,5.3
2023-05-19T05:08:00.974Z,5.3
2023-05-19T05:12:01.310Z,5.3
2023-05-19T05:16:03.787Z,5.5
2023-05-19T05:20:01.219Z,5.5
2023-05-19T05:24:01.191Z,5.7
2023-05-19T05:28:04.044Z,5.7
2023-05-19T05:32:01.084Z,5.7
2023-05-19T05:36:00.795Z,5.9
2023-05-19T05:40:01.104Z,5.9
2023-05-19T05:44:00.897Z,6.2
2023-05-19T05:48:01.190Z,6.2
2023-05-19T05:52:06.031Z,6.2
2023-05-19T05:56:01.200Z,6.6
2023-05-19T06:00:01.058Z,6.6
2023-05-19T06:04:00.959Z,7
2023-05-19T06:08:00.848Z,7
2023-05-19T06:12:00.924Z,7
2023-05-19T06:16:02.236Z,7.4
2023-05-19T06:20:01.180Z,7.4
2023-05-19T06:24:00.770Z,7.8
2023-05-19T06:28:01.125Z,7.8
2023-05-19T06:32:00.899Z,7.8
2023-05-19T06:36:00.822Z,8
2023-05-19T06:40:00.847Z,8
2023-05-19T06:44:01.084Z,8.2
2023-05-19T06:48:00.946Z,8.2
2023-05-19T06:52:00.947Z,8.2
2023-05-19T06:56:00.858Z,8.3
2023-05-19T07:00:00.940Z,8.3
2023-05-19T07:04:00.959Z,8.6
2023-05-19T07:08:00.920Z,8.6
2023-05-19T07:12:00.838Z,8.6
2023-05-19T07:16:01.010Z,8.7
2023-05-19T07:20:00.945Z,8.7
2023-05-19T07:24:01.069Z,9.2
2023-05-19T07:28:00.985Z,9.2
2023-05-19T07:32:01.059Z,9.2
2023-05-19T07:36:00.821Z,9.2
2023-05-19T07:40:00.971Z,9.2
2023-05-19T07:44:01.270Z,9.9
2023-05-19T07:48:00.995Z,9.9
2023-05-19T07:52:00.863Z,9.9
2023-05-19T07:56:01.045Z,10.3
2023-05-19T08:00:00.829Z,10.3
2023-05-19T08:04:01.434Z,10.5
2023-05-19T08:08:00.909Z,10.5
2023-05-19T08:12:01.090Z,10.5
2023-05-19T08:16:00.925Z,10.5
2023-05-19T08:20:01.029Z,10.5
2023-05-19T08:24:00.952Z,10.9
2023-05-19T08:28:00.983Z,10.9
2023-05-19T08:32:01.714Z,10.9
2023-05-19T08:36:01.001Z,10.9
2023-05-19T08:40:03.782Z,10.9
2023-05-19T08:44:01.260Z,11
2023-05-19T08:48:02.113Z,11
2023-05-19T08:52:05.377Z,11
2023-05-19T08:56:03.729Z,11
2023-05-19T09:00:01.392Z,11
2023-05-19T09:04:01.238Z,11.1
2023-05-19T09:08:02.369Z,11.1
2023-05-19T09:12:00.859Z,11.1
2023-05-19T09:16:02.237Z,11.2
2023-05-19T09:20:00.891Z,11.2
2023-05-19T09:24:03.502Z,11.3
2023-05-19T09:28:00.911Z,11.3
2023-05-19T09:32:03.986Z,11.4
2023-05-19T09:36:01.406Z,11.4
2023-05-19T09:40:01.128Z,11.4
2023-05-19T09:44:00.859Z,11.9
2023-05-19T09:48:03.555Z,11.9
2023-05-19T09:52:02.438Z,11.9
2023-05-19T09:56:02.371Z,12.4
2023-05-19T10:00:07.535Z,12.4
2023-05-19T10:04:04.494Z,12.9
2023-05-19T10:08:02.165Z,12.9
2023-05-19T10:12:01.511Z,12.9
2023-05-19T10:16:01.199Z,13.3
2023-05-19T10:20:01.455Z,13.3
2023-05-19T10:24:00.886Z,13.7
2023-05-19T10:28:02.851Z,13.7
2023-05-19T10:32:09.517Z,13.9
2023-05-19T10:36:09.958Z,13.9
2023-05-19T10:40:05.780Z,13.9
2023-05-19T10:44:10.582Z,13.9
2023-05-19T10:48:00.872Z,13.9
2023-05-19T10:52:01.314Z,13.9
2023-05-19T10:56:03.138Z,15.1
2023-05-19T11:00:10.125Z,15.1
2023-05-19T11:04:05.362Z,15.7
2023-05-19T11:08:04.146Z,15.7
2023-05-19T11:12:02.406Z,15.7
2023-05-19T11:16:06.163Z,16.1
2023-05-19T11:20:00.861Z,16.1
2023-05-19T11:24:00.932Z,16.6
2023-05-19T11:28:01.601Z,16.6
2023-05-19T11:32:01.069Z,16.6
2023-05-19T11:36:01.830Z,17.1
2023-05-19T11:40:01.272Z,17.1
2023-05-19T11:44:00.831Z,17.5
2023-05-19T11:48:03.381Z,17.5
2023-05-19T11:52:01.290Z,17.5
2023-05-19T11:56:02.548Z,17.7
2023-05-19T12:00:01.534Z,17.7
2023-05-19T12:04:01.479Z,18.1
2023-05-19T12:08:01.485Z,18.1
2023-05-19T12:12:01.734Z,18.1
2023-05-19T12:16:02.574Z,18.4
2023-05-19T12:20:02.275Z,18.4
2023-05-19T12:24:01.086Z,18.7
2023-05-19T12:28:02.056Z,18.7
2023-05-19T12:32:01.990Z,18.7
2023-05-19T12:36:00.864Z,18.7
2023-05-19T12:40:01.259Z,18.7
2023-05-19T12:44:00.882Z,18.3
2023-05-19T12:48:02.110Z,18.3
2023-05-19T12:52:03.324Z,18.3
2023-05-19T12:56:00.866Z,18.2
2023-05-19T13:00:01.611Z,18.2
2023-05-19T13:04:01.648Z,18.2
2023-05-19T13:08:02.003Z,18.2
2023-05-19T13:12:01.093Z,18.2
2023-05-19T13:16:01.100Z,18.1
2023-05-19T13:20:00.876Z,18.1
2023-05-19T13:24:02.327Z,18.2
2023-05-19T13:28:03.881Z,18.2
2023-05-19T13:32:01.595Z,18.2
2023-05-19T13:36:00.909Z,18.2
2023-05-19T13:40:01.155Z,18.2
2023-05-19T13:44:00.844Z,18.6
2023-05-19T13:48:00.927Z,18.6
2023-05-19T13:52:00.911Z,18.6
2023-05-19T13:56:01.383Z,18.6
2023-05-19T14:00:03.591Z,18.6
2023-05-19T14:04:01.381Z,18.8
2023-05-19T14:08:02.584Z,18.8
2023-05-19T14:12:00.837Z,18.8
2023-05-19T14:16:01.048Z,19.1
2023-05-19T14:20:00.927Z,19.1
2023-05-19T14:24:00.971Z,19.4
2023-05-19T14:28:00.897Z,19.4
2023-05-19T14:32:01.976Z,19.4
2023-05-19T14:36:01.068Z,18.9
2023-05-19T14:40:00.968Z,18.9
2023-05-19T14:44:00.886Z,18.8
2023-05-19T14:48:00.798Z,18.8
2023-05-19T14:52:00.905Z,18.8
2023-05-19T14:56:00.853Z,18.7
2023-05-19T15:00:01.011Z,18.7
2023-05-19T15:04:00.905Z,19.1
2023-05-19T15:08:01.069Z,19.1
2023-05-19T15:12:00.806Z,19.1
2023-05-19T15:16:15.309Z,19.1
2023-05-19T15:20:00.941Z,19.1
2023-05-19T15:24:00.990Z,18.8
2023-05-19T15:28:00.925Z,18.8
2023-05-19T15:32:01.122Z,18.8
2023-05-19T15:36:00.882Z,18.5
2023-05-19T15:40:00.882Z,18.5
2023-05-19T15:44:01.557Z,18.3
2023-05-19T15:48:00.956Z,18.3
2023-05-19T15:52:00.903Z,18.3
2023-05-19T15:56:01.749Z,18.2
2023-05-19T16:00:00.837Z,18.2
2023-05-19T16:04:02.641Z,18.7
2023-05-19T16:08:00.974Z,18.7
2023-05-19T16:12:00.947Z,18.7
2023-05-19T16:16:00.991Z,18.9
2023-05-19T16:20:01.083Z,18.9
2023-05-19T16:24:00.834Z,18.6
2023-05-19T16:28:01.277Z,18.6
2023-05-19T16:32:00.974Z,18.6
2023-05-19T16:36:00.914Z,18.4
2023-05-19T16:40:00.863Z,18.4
2023-05-19T16:44:01.427Z,18.3
2023-05-19T16:48:00.926Z,18.3
2023-05-19T16:52:00.781Z,18.3
2023-05-19T16:56:01.034Z,18.4
2023-05-19T17:00:00.964Z,18.4
2023-05-19T17:04:00.814Z,18.3
2023-05-19T17:08:00.989Z,18.3
2023-05-19T17:12:00.831Z,18.3
2023-05-19T17:16:01.331Z,18.3
2023-05-19T17:20:01.100Z,18.3
2023-05-19T17:24:00.906Z,18.1
2023-05-19T17:28:00.873Z,18.1
2023-05-19T17:32:01.058Z,18.1
2023-05-19T17:36:01.291Z,18
2023-05-19T17:40:00.876Z,18
2023-05-19T17:44:02.694Z,17.8
2023-05-19T17:48:00.982Z,17.8
2023-05-19T17:52:00.992Z,17.8
2023-05-19T17:56:02.396Z,17.6
2023-05-19T18:00:02.585Z,17.6
2023-05-19T18:04:01.356Z,17.4
2023-05-19T18:08:05.927Z,17.4
2023-05-19T18:12:01.370Z,17.4
2023-05-19T18:16:00.920Z,17.2
2023-05-19T18:20:01.342Z,17.2
2023-05-19T18:24:03.222Z,16.9
2023-05-19T18:28:00.794Z,16.9
2023-05-19T18:32:01.186Z,16.9
2023-05-19T18:36:00.978Z,16.7
2023-05-19T18:40:00.969Z,16.7
2023-05-19T18:44:01.008Z,16.4
2023-05-19T18:48:01.084Z,16.4
2023-05-19T18:52:00.810Z,16.4
2023-05-19T18:56:01.904Z,16
2023-05-19T19:00:01.156Z,16
2023-05-19T19:04:01.153Z,15.8
2023-05-19T19:08:01.424Z,15.8
2023-05-19T19:12:00.992Z,15.8
2023-05-19T19:16:00.801Z,15.5
2023-05-19T19:20:01.103Z,15.5
2023-05-19T19:24:01.221Z,15.2
2023-05-19T19:28:01.225Z,15.2
2023-05-19T19:32:01.113Z,15.2
2023-05-19T19:36:00.961Z,14.9
2023-05-19T19:40:01.076Z,14.9
2023-05-19T19:44:01.018Z,14.6
2023-05-19T19:48:00.934Z,14.6
2023-05-19T19:52:00.963Z,14.6
2023-05-19T19:56:01.725Z,14.2
2023-05-19T20:00:07.211Z,14.2
2023-05-19T20:04:00.851Z,13.9
2023-05-19T20:08:01.050Z,13.9
2023-05-19T20:12:00.857Z,13.9
2023-05-19T20:16:01.122Z,13.4
2023-05-19T20:20:03.709Z,13.4
2023-05-19T20:24:01.053Z,13.1
2023-05-19T20:28:01.117Z,13.1
2023-05-19T20:32:01.060Z,13.1
2023-05-19T20:36:01.014Z,12.7
2023-05-19T20:40:00.920Z,12.7
2023-05-19T20:44:01.012Z,12.3
2023-05-19T20:48:01.730Z,12.3
2023-05-19T20:52:00.884Z,12.3
2023-05-19T20:56:01.062Z,12
2023-05-19T21:00:00.875Z,12
2023-05-19T21:04:05.667Z,11.7
2023-05-19T21:08:01.311Z,11.7
2023-05-19T21:12:01.250Z,11.7
2023-05-19T21:16:00.849Z,11.3
2023-05-19T21:20:01.138Z,11.3
2023-05-19T21:24:00.949Z,11
2023-05-19T21:28:00.846Z,11
2023-05-19T21:32:00.954Z,11
2023-05-19T21:36:01.034Z,10.8
2023-05-19T21:40:00.893Z,10.8
2023-05-19T21:44:01.103Z,10.5
2023-05-19T21:48:01.037Z,10.5
2023-05-19T21:52:01.041Z,10.5
2023-05-19T21:56:01.162Z,10.1
2023-05-19T22:00:00.825Z,10.1
2023-05-19T22:04:01.361Z,9.9
2023-05-19T22:08:00.958Z,9.9
2023-05-19T22:12:00.984Z,9.9
2023-05-19T22:16:03.410Z,9.6
2023-05-19T22:20:01.016Z,9.6
2023-05-19T22:24:01.054Z,9.4
2023-05-19T22:28:00.795Z,9.4
2023-05-19T22:32:00.920Z,9.4
2023-05-19T22:36:00.986Z,9.1
2023-05-19T22:40:00.827Z,9.1
2023-05-19T22:44:00.955Z,8.7
2023-05-19T22:48:01.071Z,8.7
2023-05-19T22:52:00.814Z,8.7
2023-05-19T22:56:01.050Z,8.6
2023-05-19T23:00:00.849Z,8.6
2023-05-19T23:04:00.871Z,8.3
2023-05-19T23:08:00.934Z,8.3
2023-05-19T23:12:00.960Z,8.3
2023-05-19T23:16:00.882Z,8.1
2023-05-19T23:20:01.191Z,8.1
2023-05-19T23:24:00.966Z,7.8
2023-05-19T23:28:00.838Z,7.8
2023-05-19T23:32:00.961Z,7.8
2023-05-19T23:36:04.485Z,7.6
2023-05-19T23:40:00.844Z,7.6
2023-05-19T23:44:01.087Z,7.3
2023-05-19T23:48:00.865Z,7.3
2023-05-19T23:52:00.938Z,7.3
2023-05-19T23:56:01.214Z,7.1
